sensor_id;sensor_type;location;lat;lon;timestamp;P1;durP1;ratioP1;P2;durP2;ratioP2
26484;SDS011;18083;50.560;7.262;2022-12-07T00:01:11;28.30;;;16.13;;
26484;SDS011;18083;50.560;7.262;2022-12-07T00:03:39;34.27;;;18.30;;
26484;SDS011;18083;50.560;7.262;2022-12-07T00:06:08;37.83;;;16.93;;
26484;SDS011;18083;50.560;7.262;2022-12-07T00:08:35;33.73;;;17.63;;
26484;SDS011;18083;50.560;7.262;2022-12-07T00:11:11;36.40;;;17.00;;
26484;SDS011;18083;50.560;7.262;2022-12-07T00:13:34;31.63;;;16.90;;
26484;SDS011;18083;50.560;7.262;2022-12-07T00:16:10;29.53;;;17.07;;
26484;SDS011;18083;50.560;7.262;2022-12-07T00:18:37;31.63;;;17.37;;
26484;SDS011;18083;50.560;7.262;2022-12-07T00:21:12;30.50;;;16.27;;
26484;SDS011;18083;50.560;7.262;2022-12-07T00:23:39;33.87;;;17.83;;
26484;SDS011;18083;50.560;7.262;2022-12-07T00:26:11;28.10;;;14.57;;
26484;SDS011;18083;50.560;7.262;2022-12-07T00:28:36;31.30;;;15.90;;
26484;SDS011;18083;50.560;7.262;2022-12-07T00:31:04;29.00;;;16.50;;
26484;SDS011;18083;50.560;7.262;2022-12-07T00:33:32;26.60;;;16.00;;
26484;SDS011;18083;50.560;7.262;2022-12-07T00:36:00;30.20;;;16.83;;
26484;SDS011;18083;50.560;7.262;2022-12-07T00:38:32;26.23;;;16.20;;
26484;SDS011;18083;50.560;7.262;2022-12-07T00:41:05;26.53;;;16.53;;
26484;SDS011;18083;50.560;7.262;2022-12-07T00:43:28;28.13;;;15.77;;
26484;SDS011;18083;50.560;7.262;2022-12-07T00:45:56;25.20;;;15.10;;
26484;SDS011;18083;50.560;7.262;2022-12-07T00:48:24;27.27;;;16.73;;
26484;SDS011;18083;50.560;7.262;2022-12-07T00:50:51;29.40;;;16.60;;
26484;SDS011;18083;50.560;7.262;2022-12-07T00:53:19;29.97;;;15.90;;
26484;SDS011;18083;50.560;7.262;2022-12-07T00:55:46;27.27;;;16.23;;
26484;SDS011;18083;50.560;7.262;2022-12-07T00:58:14;30.10;;;16.70;;
26484;SDS011;18083;50.560;7.262;2022-12-07T01:00:41;28.30;;;15.47;;
26484;SDS011;18083;50.560;7.262;2022-12-07T01:03:10;30.87;;;17.17;;
26484;SDS011;18083;50.560;7.262;2022-12-07T01:05:37;27.27;;;16.03;;
26484;SDS011;18083;50.560;7.262;2022-12-07T01:08:05;34.77;;;16.40;;
26484;SDS011;18083;50.560;7.262;2022-12-07T01:10:33;36.00;;;16.80;;
26484;SDS011;18083;50.560;7.262;2022-12-07T01:13:00;35.47;;;17.63;;
26484;SDS011;18083;50.560;7.262;2022-12-07T01:15:28;26.50;;;14.60;;
26484;SDS011;18083;50.560;7.262;2022-12-07T01:17:55;30.97;;;17.03;;
26484;SDS011;18083;50.560;7.262;2022-12-07T01:20:22;28.93;;;16.57;;
26484;SDS011;18083;50.560;7.262;2022-12-07T01:22:50;28.83;;;16.83;;
26484;SDS011;18083;50.560;7.262;2022-12-07T01:25:17;31.60;;;19.50;;
26484;SDS011;18083;50.560;7.262;2022-12-07T01:27:44;30.70;;;17.50;;
26484;SDS011;18083;50.560;7.262;2022-12-07T01:30:12;26.33;;;15.47;;
26484;SDS011;18083;50.560;7.262;2022-12-07T01:32:39;33.07;;;15.53;;
26484;SDS011;18083;50.560;7.262;2022-12-07T01:35:07;30.23;;;16.43;;
26484;SDS011;18083;50.560;7.262;2022-12-07T01:37:39;38.87;;;17.10;;
26484;SDS011;18083;50.560;7.262;2022-12-07T01:40:07;30.97;;;16.23;;
26484;SDS011;18083;50.560;7.262;2022-12-07T01:42:35;27.17;;;15.23;;
26484;SDS011;18083;50.560;7.262;2022-12-07T01:47:53;20.37;;;14.23;;
26484;SDS011;18083;50.560;7.262;2022-12-07T01:50:21;28.40;;;17.17;;
26484;SDS011;18083;50.560;7.262;2022-12-07T01:52:49;27.17;;;15.47;;
26484;SDS011;18083;50.560;7.262;2022-12-07T01:55:17;28.07;;;15.57;;
26484;SDS011;18083;50.560;7.262;2022-12-07T01:57:46;28.27;;;14.00;;
26484;SDS011;18083;50.560;7.262;2022-12-07T02:00:14;30.90;;;14.63;;
26484;SDS011;18083;50.560;7.262;2022-12-07T02:03:01;29.97;;;14.03;;
26484;SDS011;18083;50.560;7.262;2022-12-07T02:05:25;25.03;;;15.60;;
26484;SDS011;18083;50.560;7.262;2022-12-07T02:07:55;25.90;;;14.80;;
26484;SDS011;18083;50.560;7.262;2022-12-07T02:10:26;27.23;;;15.07;;
26484;SDS011;18083;50.560;7.262;2022-12-07T02:13:04;29.13;;;13.57;;
26484;SDS011;18083;50.560;7.262;2022-12-07T02:15:41;24.33;;;13.63;;
26484;SDS011;18083;50.560;7.262;2022-12-07T02:18:09;29.03;;;14.27;;
26484;SDS011;18083;50.560;7.262;2022-12-07T02:20:33;26.73;;;14.73;;
26484;SDS011;18083;50.560;7.262;2022-12-07T02:30:51;28.20;;;14.50;;
26484;SDS011;18083;50.560;7.262;2022-12-07T02:33:24;25.17;;;14.73;;
26484;SDS011;18083;50.560;7.262;2022-12-07T02:35:57;26.30;;;13.77;;
26484;SDS011;18083;50.560;7.262;2022-12-07T02:40:53;32.00;;;16.03;;
26484;SDS011;18083;50.560;7.262;2022-12-07T02:43:25;25.10;;;13.47;;
26484;SDS011;18083;50.560;7.262;2022-12-07T02:45:55;24.40;;;13.90;;
26484;SDS011;18083;50.560;7.262;2022-12-07T02:48:21;30.23;;;13.47;;
26484;SDS011;18083;50.560;7.262;2022-12-07T02:50:51;26.77;;;14.03;;
26484;SDS011;18083;50.560;7.262;2022-12-07T02:53:31;24.67;;;13.67;;
26484;SDS011;18083;50.560;7.262;2022-12-07T02:55:57;30.40;;;17.17;;
26484;SDS011;18083;50.560;7.262;2022-12-07T03:03:41;30.20;;;15.27;;
26484;SDS011;18083;50.560;7.262;2022-12-07T03:09:07;27.17;;;15.00;;
26484;SDS011;18083;50.560;7.262;2022-12-07T03:11:51;26.30;;;15.40;;
26484;SDS011;18083;50.560;7.262;2022-12-07T03:17:31;23.43;;;13.80;;
26484;SDS011;18083;50.560;7.262;2022-12-07T03:19:15;24.90;;;14.20;;
26484;SDS011;18083;50.560;7.262;2022-12-07T03:21:49;27.63;;;15.17;;
26484;SDS011;18083;50.560;7.262;2022-12-07T03:24:17;28.43;;;14.53;;
26484;SDS011;18083;50.560;7.262;2022-12-07T03:26:42;23.93;;;13.17;;
26484;SDS011;18083;50.560;7.262;2022-12-07T03:29:20;24.97;;;14.67;;
26484;SDS011;18083;50.560;7.262;2022-12-07T03:31:48;24.60;;;13.73;;
26484;SDS011;18083;50.560;7.262;2022-12-07T03:34:18;27.07;;;13.77;;
26484;SDS011;18083;50.560;7.262;2022-12-07T03:39:22;25.00;;;13.80;;
26484;SDS011;18083;50.560;7.262;2022-12-07T03:41:49;26.33;;;14.63;;
26484;SDS011;18083;50.560;7.262;2022-12-07T03:44:16;24.90;;;12.33;;
26484;SDS011;18083;50.560;7.262;2022-12-07T03:46:44;24.67;;;14.60;;
26484;SDS011;18083;50.560;7.262;2022-12-07T03:54:15;26.00;;;15.47;;
26484;SDS011;18083;50.560;7.262;2022-12-07T03:56:42;24.00;;;14.13;;
26484;SDS011;18083;50.560;7.262;2022-12-07T03:59:11;24.37;;;13.03;;
26484;SDS011;18083;50.560;7.262;2022-12-07T04:01:40;17.87;;;11.20;;
26484;SDS011;18083;50.560;7.262;2022-12-07T04:04:07;25.33;;;12.13;;
26484;SDS011;18083;50.560;7.262;2022-12-07T04:06:36;25.07;;;14.90;;
26484;SDS011;18083;50.560;7.262;2022-12-07T04:09:03;24.73;;;13.83;;
26484;SDS011;18083;50.560;7.262;2022-12-07T04:11:30;24.90;;;14.53;;
26484;SDS011;18083;50.560;7.262;2022-12-07T04:13:58;23.43;;;13.43;;
26484;SDS011;18083;50.560;7.262;2022-12-07T04:16:52;26.60;;;13.37;;
26484;SDS011;18083;50.560;7.262;2022-12-07T04:19:15;21.77;;;13.37;;
26484;SDS011;18083;50.560;7.262;2022-12-07T04:21:43;24.27;;;12.63;;
26484;SDS011;18083;50.560;7.262;2022-12-07T04:24:11;23.80;;;13.20;;
26484;SDS011;18083;50.560;7.262;2022-12-07T04:26:39;26.43;;;14.10;;
26484;SDS011;18083;50.560;7.262;2022-12-07T04:29:07;22.90;;;13.47;;
26484;SDS011;18083;50.560;7.262;2022-12-07T04:31:35;29.93;;;15.17;;
26484;SDS011;18083;50.560;7.262;2022-12-07T04:34:03;26.03;;;13.93;;
26484;SDS011;18083;50.560;7.262;2022-12-07T04:36:30;26.83;;;14.57;;
26484;SDS011;18083;50.560;7.262;2022-12-07T04:38:58;27.70;;;15.43;;
26484;SDS011;18083;50.560;7.262;2022-12-07T04:41:25;29.40;;;16.30;;
26484;SDS011;18083;50.560;7.262;2022-12-07T04:44:03;32.40;;;16.77;;
26484;SDS011;18083;50.560;7.262;2022-12-07T04:46:27;27.00;;;15.90;;
26484;SDS011;18083;50.560;7.262;2022-12-07T04:48:55;30.73;;;17.17;;
26484;SDS011;18083;50.560;7.262;2022-12-07T04:51:23;27.00;;;16.27;;
26484;SDS011;18083;50.560;7.262;2022-12-07T04:53:51;30.67;;;16.90;;
26484;SDS011;18083;50.560;7.262;2022-12-07T04:56:19;29.33;;;17.13;;
26484;SDS011;18083;50.560;7.262;2022-12-07T04:58:46;34.33;;;17.60;;
26484;SDS011;18083;50.560;7.262;2022-12-07T05:01:15;34.67;;;17.97;;
26484;SDS011;18083;50.560;7.262;2022-12-07T05:03:43;32.30;;;17.63;;
26484;SDS011;18083;50.560;7.262;2022-12-07T05:06:10;33.47;;;17.80;;
26484;SDS011;18083;50.560;7.262;2022-12-07T05:08:38;32.77;;;18.90;;
26484;SDS011;18083;50.560;7.262;2022-12-07T05:11:05;34.93;;;18.77;;
26484;SDS011;18083;50.560;7.262;2022-12-07T05:13:33;29.40;;;15.43;;
26484;SDS011;18083;50.560;7.262;2022-12-07T05:16:01;30.47;;;16.33;;
26484;SDS011;18083;50.560;7.262;2022-12-07T05:18:28;34.17;;;18.23;;
26484;SDS011;18083;50.560;7.262;2022-12-07T05:20:55;30.13;;;16.70;;
26484;SDS011;18083;50.560;7.262;2022-12-07T05:23:23;34.03;;;17.00;;
26484;SDS011;18083;50.560;7.262;2022-12-07T05:25:50;38.90;;;21.27;;
26484;SDS011;18083;50.560;7.262;2022-12-07T05:28:17;31.37;;;18.27;;
26484;SDS011;18083;50.560;7.262;2022-12-07T05:30:45;36.30;;;19.30;;
26484;SDS011;18083;50.560;7.262;2022-12-07T05:33:12;34.07;;;19.10;;
26484;SDS011;18083;50.560;7.262;2022-12-07T05:35:40;35.70;;;19.37;;
26484;SDS011;18083;50.560;7.262;2022-12-07T05:38:07;33.43;;;18.57;;
26484;SDS011;18083;50.560;7.262;2022-12-07T05:40:35;36.90;;;18.83;;
26484;SDS011;18083;50.560;7.262;2022-12-07T05:43:03;38.43;;;19.37;;
26484;SDS011;18083;50.560;7.262;2022-12-07T05:45:30;37.17;;;19.80;;
26484;SDS011;18083;50.560;7.262;2022-12-07T05:47:58;33.23;;;19.20;;
26484;SDS011;18083;50.560;7.262;2022-12-07T05:50:25;35.27;;;18.20;;
26484;SDS011;18083;50.560;7.262;2022-12-07T05:52:54;32.07;;;18.37;;
26484;SDS011;18083;50.560;7.262;2022-12-07T05:55:21;37.13;;;19.40;;
26484;SDS011;18083;50.560;7.262;2022-12-07T05:57:48;35.03;;;20.53;;
26484;SDS011;18083;50.560;7.262;2022-12-07T06:00:29;36.30;;;19.53;;
26484;SDS011;18083;50.560;7.262;2022-12-07T06:02:56;35.57;;;20.33;;
26484;SDS011;18083;50.560;7.262;2022-12-07T06:05:24;44.07;;;22.03;;
26484;SDS011;18083;50.560;7.262;2022-12-07T06:07:51;38.70;;;19.97;;
26484;SDS011;18083;50.560;7.262;2022-12-07T06:10:19;35.47;;;21.07;;
26484;SDS011;18083;50.560;7.262;2022-12-07T06:12:46;43.10;;;21.73;;
26484;SDS011;18083;50.560;7.262;2022-12-07T06:15:13;33.40;;;20.03;;
26484;SDS011;18083;50.560;7.262;2022-12-07T06:17:41;39.10;;;22.33;;
26484;SDS011;18083;50.560;7.262;2022-12-07T06:20:08;37.17;;;20.80;;
26484;SDS011;18083;50.560;7.262;2022-12-07T06:22:36;40.80;;;19.60;;
26484;SDS011;18083;50.560;7.262;2022-12-07T06:25:03;40.10;;;20.67;;
26484;SDS011;18083;50.560;7.262;2022-12-07T06:27:30;42.60;;;21.87;;
26484;SDS011;18083;50.560;7.262;2022-12-07T06:29:59;38.40;;;18.90;;
26484;SDS011;18083;50.560;7.262;2022-12-07T06:32:28;37.13;;;19.80;;
26484;SDS011;18083;50.560;7.262;2022-12-07T06:34:58;40.90;;;19.30;;
26484;SDS011;18083;50.560;7.262;2022-12-07T06:37:26;35.40;;;20.17;;
26484;SDS011;18083;50.560;7.262;2022-12-07T06:39:53;28.67;;;16.60;;
26484;SDS011;18083;50.560;7.262;2022-12-07T06:42:22;28.90;;;17.20;;
26484;SDS011;18083;50.560;7.262;2022-12-07T06:44:49;30.30;;;16.50;;
26484;SDS011;18083;50.560;7.262;2022-12-07T06:47:17;37.07;;;16.57;;
26484;SDS011;18083;50.560;7.262;2022-12-07T06:49:44;27.37;;;15.73;;
26484;SDS011;18083;50.560;7.262;2022-12-07T06:52:11;29.20;;;15.27;;
26484;SDS011;18083;50.560;7.262;2022-12-07T06:54:39;30.07;;;15.47;;
26484;SDS011;18083;50.560;7.262;2022-12-07T06:57:06;28.97;;;15.77;;
26484;SDS011;18083;50.560;7.262;2022-12-07T06:59:33;30.37;;;16.70;;
26484;SDS011;18083;50.560;7.262;2022-12-07T07:02:01;36.27;;;18.70;;
26484;SDS011;18083;50.560;7.262;2022-12-07T07:04:28;35.53;;;19.47;;
26484;SDS011;18083;50.560;7.262;2022-12-07T07:06:56;35.50;;;20.60;;
26484;SDS011;18083;50.560;7.262;2022-12-07T07:09:23;31.17;;;17.60;;
26484;SDS011;18083;50.560;7.262;2022-12-07T07:11:50;29.80;;;16.60;;
26484;SDS011;18083;50.560;7.262;2022-12-07T07:14:18;33.20;;;16.50;;
26484;SDS011;18083;50.560;7.262;2022-12-07T07:16:45;30.37;;;16.90;;
26484;SDS011;18083;50.560;7.262;2022-12-07T07:19:13;27.37;;;15.50;;
26484;SDS011;18083;50.560;7.262;2022-12-07T07:21:40;27.73;;;16.77;;
26484;SDS011;18083;50.560;7.262;2022-12-07T07:24:07;27.13;;;15.40;;
26484;SDS011;18083;50.560;7.262;2022-12-07T07:26:35;28.03;;;14.13;;
26484;SDS011;18083;50.560;7.262;2022-12-07T07:29:02;27.13;;;15.37;;
26484;SDS011;18083;50.560;7.262;2022-12-07T07:31:30;26.87;;;15.07;;
26484;SDS011;18083;50.560;7.262;2022-12-07T07:33:57;26.30;;;15.43;;
26484;SDS011;18083;50.560;7.262;2022-12-07T07:36:24;30.67;;;17.40;;
26484;SDS011;18083;50.560;7.262;2022-12-07T07:38:52;27.30;;;16.27;;
26484;SDS011;18083;50.560;7.262;2022-12-07T07:41:19;31.07;;;14.77;;
26484;SDS011;18083;50.560;7.262;2022-12-07T07:43:46;26.03;;;14.30;;
26484;SDS011;18083;50.560;7.262;2022-12-07T07:46:14;25.20;;;14.57;;
26484;SDS011;18083;50.560;7.262;2022-12-07T07:48:41;31.80;;;14.87;;
26484;SDS011;18083;50.560;7.262;2022-12-07T07:51:09;31.43;;;16.63;;
26484;SDS011;18083;50.560;7.262;2022-12-07T07:53:36;22.73;;;13.03;;
26484;SDS011;18083;50.560;7.262;2022-12-07T07:56:04;25.60;;;14.27;;
26484;SDS011;18083;50.560;7.262;2022-12-07T07:58:31;21.93;;;11.87;;
26484;SDS011;18083;50.560;7.262;2022-12-07T08:01:05;23.60;;;12.80;;
26484;SDS011;18083;50.560;7.262;2022-12-07T08:03:40;23.53;;;12.53;;
26484;SDS011;18083;50.560;7.262;2022-12-07T08:06:07;24.37;;;13.10;;
26484;SDS011;18083;50.560;7.262;2022-12-07T08:08:35;26.57;;;12.47;;
26484;SDS011;18083;50.560;7.262;2022-12-07T08:11:12;24.53;;;15.93;;
26484;SDS011;18083;50.560;7.262;2022-12-07T08:13:50;20.10;;;11.70;;
26484;SDS011;18083;50.560;7.262;2022-12-07T08:16:18;23.80;;;11.50;;
26484;SDS011;18083;50.560;7.262;2022-12-07T08:18:45;15.50;;;10.43;;
26484;SDS011;18083;50.560;7.262;2022-12-07T08:21:13;18.57;;;10.23;;
26484;SDS011;18083;50.560;7.262;2022-12-07T08:23:42;25.00;;;12.20;;
26484;SDS011;18083;50.560;7.262;2022-12-07T08:26:13;17.47;;;9.33;;
26484;SDS011;18083;50.560;7.262;2022-12-07T08:28:41;16.33;;;9.40;;
26484;SDS011;18083;50.560;7.262;2022-12-07T08:31:16;14.53;;;9.63;;
26484;SDS011;18083;50.560;7.262;2022-12-07T08:33:39;15.10;;;9.57;;
26484;SDS011;18083;50.560;7.262;2022-12-07T08:36:09;22.17;;;11.50;;
26484;SDS011;18083;50.560;7.262;2022-12-07T08:38:38;16.80;;;11.63;;
26484;SDS011;18083;50.560;7.262;2022-12-07T08:41:06;19.07;;;12.30;;
26484;SDS011;18083;50.560;7.262;2022-12-07T08:43:34;19.10;;;10.83;;
26484;SDS011;18083;50.560;7.262;2022-12-07T08:48:59;21.60;;;10.77;;
26484;SDS011;18083;50.560;7.262;2022-12-07T08:51:28;21.97;;;10.90;;
26484;SDS011;18083;50.560;7.262;2022-12-07T08:53:58;17.53;;;9.70;;
26484;SDS011;18083;50.560;7.262;2022-12-07T08:56:29;19.53;;;11.87;;
26484;SDS011;18083;50.560;7.262;2022-12-07T08:58:57;23.23;;;13.70;;
26484;SDS011;18083;50.560;7.262;2022-12-07T09:01:28;26.10;;;14.83;;
26484;SDS011;18083;50.560;7.262;2022-12-07T09:03:58;25.97;;;12.77;;
26484;SDS011;18083;50.560;7.262;2022-12-07T09:06:27;28.47;;;12.07;;
26484;SDS011;18083;50.560;7.262;2022-12-07T09:08:56;19.73;;;11.73;;
26484;SDS011;18083;50.560;7.262;2022-12-07T09:11:25;16.93;;;10.57;;
26484;SDS011;18083;50.560;7.262;2022-12-07T09:13:53;19.17;;;12.17;;
26484;SDS011;18083;50.560;7.262;2022-12-07T09:16:23;23.37;;;11.23;;
26484;SDS011;18083;50.560;7.262;2022-12-07T09:18:52;19.30;;;11.23;;
26484;SDS011;18083;50.560;7.262;2022-12-07T09:21:20;20.70;;;11.57;;
26484;SDS011;18083;50.560;7.262;2022-12-07T09:23:48;21.33;;;11.70;;
26484;SDS011;18083;50.560;7.262;2022-12-07T09:26:17;26.50;;;13.63;;
26484;SDS011;18083;50.560;7.262;2022-12-07T09:28:45;18.47;;;11.07;;
26484;SDS011;18083;50.560;7.262;2022-12-07T09:31:13;22.33;;;12.97;;
26484;SDS011;18083;50.560;7.262;2022-12-07T09:33:41;22.50;;;12.33;;
26484;SDS011;18083;50.560;7.262;2022-12-07T09:36:10;19.57;;;8.90;;
26484;SDS011;18083;50.560;7.262;2022-12-07T09:38:38;19.20;;;9.87;;
26484;SDS011;18083;50.560;7.262;2022-12-07T09:41:08;17.67;;;10.93;;
26484;SDS011;18083;50.560;7.262;2022-12-07T09:43:36;21.80;;;8.60;;
26484;SDS011;18083;50.560;7.262;2022-12-07T09:46:05;21.27;;;8.87;;
26484;SDS011;18083;50.560;7.262;2022-12-07T09:48:36;17.77;;;9.63;;
26484;SDS011;18083;50.560;7.262;2022-12-07T09:53:44;22.13;;;9.47;;
26484;SDS011;18083;50.560;7.262;2022-12-07T09:56:17;11.43;;;7.40;;
26484;SDS011;18083;50.560;7.262;2022-12-07T09:58:43;15.43;;;7.70;;
26484;SDS011;18083;50.560;7.262;2022-12-07T10:01:14;17.63;;;8.63;;
26484;SDS011;18083;50.560;7.262;2022-12-07T10:06:16;13.80;;;7.17;;
26484;SDS011;18083;50.560;7.262;2022-12-07T10:08:44;13.97;;;6.13;;
26484;SDS011;18083;50.560;7.262;2022-12-07T10:11:11;13.23;;;7.60;;
26484;SDS011;18083;50.560;7.262;2022-12-07T10:13:41;12.43;;;7.03;;
26484;SDS011;18083;50.560;7.262;2022-12-07T10:18:51;9.13;;;5.43;;
26484;SDS011;18083;50.560;7.262;2022-12-07T10:21:19;15.67;;;6.30;;
26484;SDS011;18083;50.560;7.262;2022-12-07T10:28:58;11.43;;;5.50;;
26484;SDS011;18083;50.560;7.262;2022-12-07T10:31:37;11.10;;;5.23;;
26484;SDS011;18083;50.560;7.262;2022-12-07T10:34:12;7.13;;;3.43;;
26484;SDS011;18083;50.560;7.262;2022-12-07T10:36:36;10.30;;;3.73;;
26484;SDS011;18083;50.560;7.262;2022-12-07T10:39:18;8.83;;;4.03;;
26484;SDS011;18083;50.560;7.262;2022-12-07T10:41:54;7.00;;;3.73;;
26484;SDS011;18083;50.560;7.262;2022-12-07T10:44:29;6.83;;;4.30;;
26484;SDS011;18083;50.560;7.262;2022-12-07T10:46:59;9.20;;;3.70;;
26484;SDS011;18083;50.560;7.262;2022-12-07T10:49:39;7.50;;;4.50;;
26484;SDS011;18083;50.560;7.262;2022-12-07T10:52:18;7.23;;;3.67;;
26484;SDS011;18083;50.560;7.262;2022-12-07T10:54:46;4.80;;;3.10;;
26484;SDS011;18083;50.560;7.262;2022-12-07T11:00:07;6.37;;;3.03;;
26484;SDS011;18083;50.560;7.262;2022-12-07T11:02:35;7.67;;;2.27;;
26484;SDS011;18083;50.560;7.262;2022-12-07T11:05:21;5.30;;;2.20;;
26484;SDS011;18083;50.560;7.262;2022-12-07T11:07:59;6.77;;;2.33;;
26484;SDS011;18083;50.560;7.262;2022-12-07T11:10:33;5.00;;;2.50;;
26484;SDS011;18083;50.560;7.262;2022-12-07T11:23:40;10.03;;;3.93;;
26484;SDS011;18083;50.560;7.262;2022-12-07T11:26:11;4.87;;;2.80;;
26484;SDS011;18083;50.560;7.262;2022-12-07T11:28:50;11.67;;;2.70;;
26484;SDS011;18083;50.560;7.262;2022-12-07T11:33:47;7.83;;;3.50;;
26484;SDS011;18083;50.560;7.262;2022-12-07T11:36:32;4.60;;;2.90;;
26484;SDS011;18083;50.560;7.262;2022-12-07T11:39:09;5.93;;;3.60;;
26484;SDS011;18083;50.560;7.262;2022-12-07T11:41:32;9.07;;;3.07;;
26484;SDS011;18083;50.560;7.262;2022-12-07T11:44:06;4.60;;;1.73;;
26484;SDS011;18083;50.560;7.262;2022-12-07T11:46:43;4.23;;;1.63;;
26484;SDS011;18083;50.560;7.262;2022-12-07T11:51:37;4.33;;;2.50;;
26484;SDS011;18083;50.560;7.262;2022-12-07T11:54:14;3.93;;;2.97;;
26484;SDS011;18083;50.560;7.262;2022-12-07T11:56:40;6.57;;;3.13;;
26484;SDS011;18083;50.560;7.262;2022-12-07T11:59:11;5.17;;;2.87;;
26484;SDS011;18083;50.560;7.262;2022-12-07T12:01:51;7.40;;;3.70;;
26484;SDS011;18083;50.560;7.262;2022-12-07T12:04:25;5.90;;;3.40;;
26484;SDS011;18083;50.560;7.262;2022-12-07T12:06:52;5.80;;;3.60;;
26484;SDS011;18083;50.560;7.262;2022-12-07T12:09:39;7.13;;;2.83;;
26484;SDS011;18083;50.560;7.262;2022-12-07T12:12:07;6.07;;;2.93;;
26484;SDS011;18083;50.560;7.262;2022-12-07T12:14:37;6.37;;;2.03;;
26484;SDS011;18083;50.560;7.262;2022-12-07T12:20:03;6.90;;;2.53;;
26484;SDS011;18083;50.560;7.262;2022-12-07T12:22:48;6.57;;;2.47;;
26484;SDS011;18083;50.560;7.262;2022-12-07T12:25:02;7.23;;;2.47;;
26484;SDS011;18083;50.560;7.262;2022-12-07T12:27:37;8.93;;;2.80;;
26484;SDS011;18083;50.560;7.262;2022-12-07T12:30:02;4.73;;;2.67;;
26484;SDS011;18083;50.560;7.262;2022-12-07T12:32:35;4.20;;;2.83;;
26484;SDS011;18083;50.560;7.262;2022-12-07T12:35:20;6.40;;;2.70;;
26484;SDS011;18083;50.560;7.262;2022-12-07T12:42:55;8.43;;;3.47;;
26484;SDS011;18083;50.560;7.262;2022-12-07T12:45:23;3.67;;;2.30;;
26484;SDS011;18083;50.560;7.262;2022-12-07T12:50:23;5.63;;;2.27;;
26484;SDS011;18083;50.560;7.262;2022-12-07T12:52:55;5.17;;;3.00;;
26484;SDS011;18083;50.560;7.262;2022-12-07T12:55:21;6.80;;;3.27;;
26484;SDS011;18083;50.560;7.262;2022-12-07T12:58:35;9.57;;;2.90;;
26484;SDS011;18083;50.560;7.262;2022-12-07T13:00:19;12.67;;;2.80;;
26484;SDS011;18083;50.560;7.262;2022-12-07T13:02:50;8.77;;;3.00;;
26484;SDS011;18083;50.560;7.262;2022-12-07T13:05:37;9.13;;;4.77;;
26484;SDS011;18083;50.560;7.262;2022-12-07T13:07:52;6.83;;;3.60;;
26484;SDS011;18083;50.560;7.262;2022-12-07T13:15:42;5.13;;;3.63;;
26484;SDS011;18083;50.560;7.262;2022-12-07T13:18:52;7.47;;;3.47;;
26484;SDS011;18083;50.560;7.262;2022-12-07T13:20:48;8.07;;;4.57;;
26484;SDS011;18083;50.560;7.262;2022-12-07T13:23:20;13.40;;;3.77;;
26484;SDS011;18083;50.560;7.262;2022-12-07T13:25:51;5.43;;;3.53;;
26484;SDS011;18083;50.560;7.262;2022-12-07T13:28:17;5.40;;;3.97;;
26484;SDS011;18083;50.560;7.262;2022-12-07T13:31:00;6.30;;;3.27;;
26484;SDS011;18083;50.560;7.262;2022-12-07T13:33:14;6.47;;;3.10;;
26484;SDS011;18083;50.560;7.262;2022-12-07T13:35:42;6.27;;;3.30;;
26484;SDS011;18083;50.560;7.262;2022-12-07T13:38:25;5.73;;;3.57;;
26484;SDS011;18083;50.560;7.262;2022-12-07T13:43:42;6.90;;;4.20;;
26484;SDS011;18083;50.560;7.262;2022-12-07T13:46:02;12.07;;;4.10;;
26484;SDS011;18083;50.560;7.262;2022-12-07T13:48:31;13.53;;;5.53;;
26484;SDS011;18083;50.560;7.262;2022-12-07T13:51:00;5.73;;;4.17;;
26484;SDS011;18083;50.560;7.262;2022-12-07T13:53:28;6.90;;;5.07;;
26484;SDS011;18083;50.560;7.262;2022-12-07T13:55:57;6.27;;;3.97;;
26484;SDS011;18083;50.560;7.262;2022-12-07T13:58:30;16.57;;;10.80;;
26484;SDS011;18083;50.560;7.262;2022-12-07T14:00:54;10.67;;;6.80;;
26484;SDS011;18083;50.560;7.262;2022-12-07T14:03:29;16.00;;;9.03;;
26484;SDS011;18083;50.560;7.262;2022-12-07T14:08:35;18.87;;;13.43;;
26484;SDS011;18083;50.560;7.262;2022-12-07T14:11:02;15.50;;;13.90;;
26484;SDS011;18083;50.560;7.262;2022-12-07T14:13:33;33.97;;;25.37;;
26484;SDS011;18083;50.560;7.262;2022-12-07T14:16:05;20.63;;;8.83;;
26484;SDS011;18083;50.560;7.262;2022-12-07T14:18:37;7.53;;;5.40;;
26484;SDS011;18083;50.560;7.262;2022-12-07T14:21:05;7.43;;;4.97;;
26484;SDS011;18083;50.560;7.262;2022-12-07T14:23:33;8.23;;;4.90;;
26484;SDS011;18083;50.560;7.262;2022-12-07T14:26:07;12.13;;;7.37;;
26484;SDS011;18083;50.560;7.262;2022-12-07T14:28:35;13.10;;;5.50;;
26484;SDS011;18083;50.560;7.262;2022-12-07T14:31:03;13.97;;;7.93;;
26484;SDS011;18083;50.560;7.262;2022-12-07T14:33:31;8.80;;;5.20;;
26484;SDS011;18083;50.560;7.262;2022-12-07T14:35:59;15.23;;;9.37;;
26484;SDS011;18083;50.560;7.262;2022-12-07T14:38:26;17.33;;;9.17;;
26484;SDS011;18083;50.560;7.262;2022-12-07T14:40:54;15.57;;;8.43;;
26484;SDS011;18083;50.560;7.262;2022-12-07T14:43:23;20.43;;;9.83;;
26484;SDS011;18083;50.560;7.262;2022-12-07T14:45:50;41.70;;;23.57;;
26484;SDS011;18083;50.560;7.262;2022-12-07T14:48:18;10.67;;;6.33;;
26484;SDS011;18083;50.560;7.262;2022-12-07T14:50:47;14.33;;;8.60;;
26484;SDS011;18083;50.560;7.262;2022-12-07T14:53:15;12.87;;;6.70;;
26484;SDS011;18083;50.560;7.262;2022-12-07T14:55:43;11.30;;;6.37;;
26484;SDS011;18083;50.560;7.262;2022-12-07T14:58:14;6.30;;;4.63;;
26484;SDS011;18083;50.560;7.262;2022-12-07T15:00:39;11.30;;;4.73;;
26484;SDS011;18083;50.560;7.262;2022-12-07T15:03:06;7.13;;;4.17;;
26484;SDS011;18083;50.560;7.262;2022-12-07T15:05:34;5.43;;;3.17;;
26484;SDS011;18083;50.560;7.262;2022-12-07T15:08:01;10.33;;;4.37;;
26484;SDS011;18083;50.560;7.262;2022-12-07T15:10:30;7.97;;;4.83;;
26484;SDS011;18083;50.560;7.262;2022-12-07T15:12:58;12.40;;;3.97;;
26484;SDS011;18083;50.560;7.262;2022-12-07T15:15:27;9.97;;;4.67;;
26484;SDS011;18083;50.560;7.262;2022-12-07T15:17:55;13.63;;;8.53;;
26484;SDS011;18083;50.560;7.262;2022-12-07T15:20:22;18.03;;;10.70;;
26484;SDS011;18083;50.560;7.262;2022-12-07T15:22:49;21.47;;;12.47;;
26484;SDS011;18083;50.560;7.262;2022-12-07T15:25:17;9.90;;;6.60;;
26484;SDS011;18083;50.560;7.262;2022-12-07T15:27:44;17.30;;;8.17;;
26484;SDS011;18083;50.560;7.262;2022-12-07T15:30:12;12.87;;;6.13;;
26484;SDS011;18083;50.560;7.262;2022-12-07T15:32:39;12.27;;;6.00;;
26484;SDS011;18083;50.560;7.262;2022-12-07T15:35:06;10.77;;;6.93;;
26484;SDS011;18083;50.560;7.262;2022-12-07T15:37:34;11.63;;;7.93;;
26484;SDS011;18083;50.560;7.262;2022-12-07T15:40:01;15.03;;;7.80;;
26484;SDS011;18083;50.560;7.262;2022-12-07T15:42:29;12.87;;;8.03;;
26484;SDS011;18083;50.560;7.262;2022-12-07T15:44:56;14.77;;;7.30;;
26484;SDS011;18083;50.560;7.262;2022-12-07T15:47:30;13.67;;;6.73;;
26484;SDS011;18083;50.560;7.262;2022-12-07T15:49:58;11.67;;;6.93;;
26484;SDS011;18083;50.560;7.262;2022-12-07T15:52:26;7.77;;;5.57;;
26484;SDS011;18083;50.560;7.262;2022-12-07T15:54:53;12.53;;;6.03;;
26484;SDS011;18083;50.560;7.262;2022-12-07T15:57:21;9.07;;;5.53;;
26484;SDS011;18083;50.560;7.262;2022-12-07T15:59:48;18.67;;;6.17;;
26484;SDS011;18083;50.560;7.262;2022-12-07T16:02:16;13.57;;;7.27;;
26484;SDS011;18083;50.560;7.262;2022-12-07T16:04:43;10.13;;;6.57;;
26484;SDS011;18083;50.560;7.262;2022-12-07T16:07:11;13.03;;;7.23;;